New Season SmallBallMall
 
 
 
Home Forum Leagues Seasons Search Help
 

 
The Wolfpack (N*S)
today
 
ID#: 575011 since: 2/14/2007 Honor Rating: 8.1
Call out a Wolf, you get the pack Canada
 

Player Pos Games AB Hits AVG 1B 2B 3B HR RBI SO ERA
Threshold of Pain LF 54 219 85 .388 85 4 0 7 25 0 -
Immortal Tyrant C 69 312 140 .448 134 12 1 12 46 0 -
Anger as Beauty 3B 59 242 87 .359 94 15 3 7 36 0 -
Selfish War Machine P 47 184 54 .293 54 1 1 5 24 713 3.27
Forest for the Trees 1B 40 179 96 .536 95 15 2 9 38 0 -
Death Dealer SS 53 209 72 .344 76 2 1 5 38 0 -
Ghost in Snow 1B 59 225 61 .271 50 12 3 8 35 0 -
World Eater CF 51 202 56 .277 39 20 5 2 21 0 -
Vigilante King 2B 60 253 74 .292 76 3 1 8 26 0 -
Lion Heart P 23 83 16 .192 17 1 0 1 7 404 1.06
Plastic Existence RF 54 234 87 .371 72 20 0 11 49 0 -
Beast Incarnate 3B 61 237 69 .291 56 10 0 12 31 0 -

Big League Ranking: 100 W/L: .870 GP: 54
  Pro League Ranking: 15 W/L: .444 GP: 18
   To view full league stats, click on the league name.
 
Recent Games
League Date Opponent Id Letters Score W/L
BIG 3/4/21 The Sandlot Bully 23753 RGB 1:0 W
BIG 3/4/21 Patriots 23809 379 0:2 W
BIG 3/4/21 The Care Bears Family 23817 N*S 1:0 L
BIG 3/5/21 The Sandlot Bully 23975 RGB 0:4 W
BIG 3/5/21 Black Sox (AcA) 23988 (Q) 12:0 W
BIG 3/5/21 Green Sox (AcA) 24007 (Q) 3:0 W
BIG 3/5/21 Dark Warriors 24039 666 9:0 W
BIG 3/6/21 Hilltoppers Jr 24067 HJR 5:0 W
BIG 3/6/21 Kansas Jayhawks 24073 KU 6:0 W
BIG 3/6/21 Def Leppard 24142 DEF 0:7 W
BIG 3/7/21 My First Team 24268 HG6 1:0 W
BIG 3/9/21 Hilltoppers Jr 24635 HJR 8:3 W
BIG 3/9/21 Kansas Jayhawks 24676 KU 4:0 W
BIG 3/10/21 WeBeBack 24787 WBB 3:0 W
BIG 3/14/21 Hilltoppers Jr 25388 HJR 14:0 W
BIG 3/15/21 Hilltoppers Jr 25468 HJR 4:0 W
BIG 3/17/21 WeBeBack 25657 WBB 3:0 W
BIG 3/17/21 MW Wildcats 25678 Ket 4:0 W
BIG 3/17/21 Husker Power 25679 Ket 3:0 W
BIG 3/17/21 Hudlies 25680 Ket 0:1 L
BIG 3/17/21 Rat Pack 25681 Ket 1:0 W
BIG 3/17/21 Hilltoppers Jr 25689 HJR 11:3 W
BIG 3/18/21 Rat Pack 25712 Ket 2:0 W
BIG 3/20/21 WeBeBack 25860 WBB 3:0 W
BIG 3/21/21 MW Wildcats 29456 Ket 3:1 W
BIG 3/22/21 Husker Power 32548 Ket 4:0 W
BIG 3/22/21 Hudlies 32549 Ket 2:1 W
BIG 3/22/21 MW Wildcats 32550 Ket 3:1 W
BIG 3/22/21 Rat Pack 32551 Ket 5:0 W
BIG 3/23/21 MW Wildcats 32579 Ket 4:1 W
BIG 3/27/21 WeBeBack 32771 WBB 3:7 L
BIG 3/28/21 Rat Pack 32818 Ket 6:5 W
BIG 3/29/21 MW Wildcats 32848 Ket 5:0 W
BIG 3/30/21 Rat Pack 32917 Ket 9:0 W
BIG 3/31/21 PULUTAN 32934 PUL 4:1 W
ProLeague Games
2 7/10/19 The Care Bears Family 3093 N*S 5:9 L
2 7/7/19 Universal Church of Truth 3101 N*S 5:7 L
2 7/8/19 Smexy Pepe 3110 786 7:9 W
2 7/7/19 Bullet Club 3111 N*S 3:2 L
2 7/13/19 South Siders (SBD) 3112 mcg 5:7 W
2 7/9/19 Ajax Assassins 3113 N*S 2:3 W
2 7/14/19 California Golden Seals 3114 Cal 12:10 L
2 7/20/19 1960 New York Yankees 3115 (Q) 3:10 W
2 7/20/19 Bad News 3116 (Q) 3:7 W
2 7/20/19 Shameless 3262 mcg 10:7 W
2 7/11/19 Smoke On The Water 3270 (Q) 5:10 L
2 7/20/19 DarkElf's Destroyers 3278 ELF 2:8 L
2 7/16/19 ***Cosby**Eagles*** ~XsT~ 3286 VOL 8:7 W
2 7/14/19 The Chicago Mob 3294 MOB 13:5 W
2 7/9/19 Colorado Buffaloes 3302 N*S 6:7 L
2 7/18/19 Snake Bitten 3310 SB 6:15 L
User League Games
To view the opposing team's stats, click on the team name.
     
 

Privacy Policy   |    Contact Us   |    User Agreement   |    Code of Conduct